createdAt,value
2017-12-07T00:00:47.479Z,30.70
2017-12-07T00:01:47.473Z,30.50
2017-12-07T00:02:47.468Z,31.00
2017-12-07T00:03:47.463Z,30.60
2017-12-07T00:04:47.507Z,30.60
2017-12-07T00:05:47.452Z,30.30
2017-12-07T00:06:47.447Z,30.70
2017-12-07T00:07:47.442Z,31.90
2017-12-07T00:08:47.451Z,30.40
2017-12-07T00:09:47.430Z,30.30
2017-12-07T00:10:47.425Z,32.50
2017-12-07T00:11:47.432Z,31.80
2017-12-07T00:12:47.414Z,31.90
2017-12-07T00:13:47.409Z,32.90
2017-12-07T00:14:47.422Z,32.60
2017-12-07T00:15:47.399Z,33.20
2017-12-07T00:16:47.461Z,30.90
2017-12-07T00:17:47.388Z,30.70
2017-12-07T00:18:47.401Z,30.60
2017-12-07T00:19:47.396Z,30.80
2017-12-07T00:20:47.390Z,30.60
2017-12-07T00:21:47.384Z,30.10
2017-12-07T00:22:47.429Z,31.30
2017-12-07T00:23:47.355Z,31.00
2017-12-07T00:24:47.350Z,30.20
2017-12-07T00:25:47.363Z,27.10
2017-12-07T00:26:47.340Z,27.80
2017-12-07T00:27:47.352Z,27.50
2017-12-07T00:28:47.350Z,27.20
2017-12-07T00:29:47.341Z,27.30
2017-12-07T00:30:47.336Z,25.70
2017-12-07T00:31:47.312Z,24.40
2017-12-07T00:32:47.310Z,23.40
2017-12-07T00:33:47.302Z,23.30
2017-12-07T00:34:47.315Z,25.10
2017-12-07T00:35:47.292Z,23.50
2017-12-07T00:36:47.286Z,23.40
2017-12-07T00:37:47.285Z,23.20
2017-12-07T00:38:47.275Z,22.50
2017-12-07T00:39:47.269Z,21.30
2017-12-07T00:40:47.282Z,20.90
2017-12-07T00:41:47.263Z,21.90
2017-12-07T00:42:47.282Z,20.90
2017-12-07T00:43:47.248Z,19.20
2017-12-07T00:44:47.246Z,18.90
2017-12-07T00:45:47.237Z,20.10
2017-12-07T00:46:47.236Z,18.60
2017-12-07T00:47:47.227Z,19.20
2017-12-07T00:48:47.221Z,20.20
2017-12-07T00:49:47.215Z,19.50
2017-12-07T00:50:47.210Z,19.40
2017-12-07T00:51:47.208Z,19.30
2017-12-07T00:52:47.203Z,20.80
2017-12-07T00:53:47.195Z,20.70
2017-12-07T00:54:47.193Z,20.60
2017-12-07T00:55:47.183Z,21.40
2017-12-07T00:56:47.177Z,22.00
2017-12-07T00:57:47.172Z,21.00
2017-12-07T00:58:47.171Z,20.60
2017-12-07T00:59:47.166Z,21.00
2017-12-07T01:00:47.172Z,22.10
2017-12-07T01:01:47.167Z,20.80
2017-12-07T01:02:47.161Z,21.50
2017-12-07T01:03:47.157Z,20.40
2017-12-07T01:04:47.138Z,22.30
2017-12-07T01:05:47.128Z,24.60
2017-12-07T01:06:47.124Z,26.00
2017-12-07T01:07:47.118Z,26.10
2017-12-07T01:08:47.128Z,25.90
2017-12-07T01:09:47.111Z,26.00
2017-12-07T01:10:47.118Z,24.50
2017-12-07T01:11:47.101Z,26.80
2017-12-07T01:12:47.091Z,24.90
2017-12-07T01:13:47.102Z,26.00
2017-12-07T01:14:47.097Z,27.30
2017-12-07T01:15:47.090Z,26.90
2017-12-07T01:16:47.084Z,27.00
2017-12-07T01:17:47.067Z,27.10
2017-12-07T01:18:47.281Z,27.00
2017-12-07T01:19:47.070Z,30.00
2017-12-07T01:20:47.047Z,30.40
2017-12-07T01:21:47.058Z,29.60
2017-12-07T01:22:47.053Z,31.80
2017-12-07T01:23:47.032Z,31.60
2017-12-07T01:24:47.026Z,31.50
2017-12-07T01:25:47.053Z,31.30
2017-12-07T01:26:47.015Z,31.90
2017-12-07T01:27:47.030Z,31.10
2017-12-07T01:28:47.020Z,32.20
2017-12-07T01:29:47.019Z,33.30
2017-12-07T01:30:47.013Z,32.90
2017-12-07T01:31:46.990Z,31.70
2017-12-07T01:32:47.002Z,32.10
2017-12-07T01:33:46.993Z,32.50
2017-12-07T01:34:46.975Z,32.50
2017-12-07T01:35:46.987Z,32.90
2017-12-07T01:36:46.965Z,34.50
2017-12-07T01:37:46.972Z,31.80
2017-12-07T01:38:46.970Z,32.40
2017-12-07T01:39:46.946Z,32.60
2017-12-07T01:40:46.962Z,32.70
2017-12-07T01:41:46.938Z,32.30
2017-12-07T01:42:46.948Z,31.20
2017-12-07T01:43:46.940Z,32.90
2017-12-07T01:44:46.937Z,31.90
2017-12-07T01:45:46.916Z,31.80
2017-12-07T01:46:46.923Z,33.10
2017-12-07T01:47:46.907Z,31.90
2017-12-07T01:48:46.896Z,33.40
2017-12-07T01:49:46.910Z,32.40
2017-12-07T01:50:46.905Z,31.70
2017-12-07T01:51:46.901Z,31.90
2017-12-07T01:52:46.894Z,31.50
2017-12-07T01:53:46.874Z,32.50
2017-12-07T01:54:46.868Z,30.90
2017-12-07T01:55:46.860Z,32.50
2017-12-07T01:56:46.853Z,32.90
2017-12-07T01:57:46.863Z,31.20
2017-12-07T01:58:46.859Z,29.90
2017-12-07T01:59:46.843Z,30.00
2017-12-07T02:00:46.849Z,30.30
2017-12-07T02:01:46.831Z,30.60
2017-12-07T02:02:46.822Z,28.30
2017-12-07T02:03:46.821Z,27.10
2017-12-07T02:04:46.810Z,26.30
2017-12-07T02:05:46.827Z,24.60
2017-12-07T02:06:46.805Z,24.40
2017-12-07T02:07:46.796Z,23.10
2017-12-07T02:08:46.809Z,23.10
2017-12-07T02:09:46.784Z,24.60
2017-12-07T02:10:46.795Z,26.40
2017-12-07T02:11:46.793Z,28.80
2017-12-07T02:12:46.775Z,28.50
2017-12-07T02:13:46.766Z,25.50
2017-12-07T02:14:46.757Z,24.50
2017-12-07T02:15:46.756Z,25.50
2017-12-07T02:16:46.762Z,25.20
2017-12-07T02:17:46.740Z,25.50
2017-12-07T02:18:46.735Z,25.30
2017-12-07T02:19:46.729Z,25.00
2017-12-07T02:20:46.723Z,26.50
2017-12-07T02:21:46.728Z,27.90
2017-12-07T02:22:46.707Z,28.70
2017-12-07T02:23:46.707Z,28.20
2017-12-07T02:24:46.721Z,27.00
2017-12-07T02:25:46.706Z,28.00
2017-12-07T02:26:46.695Z,27.90
2017-12-07T02:27:46.702Z,27.40
2017-12-07T02:28:46.695Z,27.40
2017-12-07T02:29:46.693Z,27.40
2017-12-07T02:30:46.689Z,27.20
2017-12-07T02:31:46.673Z,26.70
2017-12-07T02:32:46.661Z,27.50
2017-12-07T02:33:46.646Z,27.80
2017-12-07T02:34:46.657Z,26.70
2017-12-07T02:35:46.641Z,25.90
2017-12-07T02:36:46.651Z,26.50
2017-12-07T02:37:46.649Z,28.20
2017-12-07T02:38:46.625Z,27.00
2017-12-07T02:39:46.631Z,26.40
2017-12-07T02:40:46.717Z,26.50
2017-12-07T02:41:46.627Z,26.10
2017-12-07T02:42:46.619Z,26.00
2017-12-07T02:43:46.596Z,25.60
2017-12-07T02:44:46.592Z,24.00
2017-12-07T02:45:46.585Z,25.30
2017-12-07T02:46:46.579Z,24.30
2017-12-07T02:47:46.592Z,25.00
2017-12-07T02:48:46.586Z,24.10
2017-12-07T02:49:46.562Z,23.30
2017-12-07T02:50:46.557Z,23.00
2017-12-07T02:51:46.552Z,22.40
2017-12-07T02:52:46.563Z,21.20
2017-12-07T02:53:46.561Z,22.10
2017-12-07T02:54:46.529Z,21.10
2017-12-07T02:55:46.547Z,20.90
2017-12-07T02:56:46.516Z,20.30
2017-12-07T02:57:46.534Z,19.00
2017-12-07T02:58:46.510Z,20.20
2017-12-07T02:59:46.505Z,18.80
2017-12-07T03:00:46.498Z,17.90
2017-12-07T03:01:46.493Z,17.60
2017-12-07T03:02:46.506Z,17.00
2017-12-07T03:03:46.476Z,17.10
2017-12-07T03:04:46.475Z,17.00
2017-12-07T03:05:46.464Z,16.60
2017-12-07T03:06:46.458Z,16.70
2017-12-07T03:07:46.458Z,16.00
2017-12-07T03:08:46.454Z,16.80
2017-12-07T03:09:46.465Z,16.30
2017-12-07T03:10:46.435Z,15.80
2017-12-07T03:11:46.453Z,15.80
2017-12-07T03:12:46.446Z,15.90
2017-12-07T03:13:46.441Z,16.80
2017-12-07T03:14:46.417Z,16.10
2017-12-07T03:15:46.411Z,15.10
2017-12-07T03:16:46.405Z,16.40
2017-12-07T03:17:46.417Z,15.50
2017-12-07T03:18:46.393Z,15.60
2017-12-07T03:19:46.406Z,15.70
2017-12-07T03:20:46.399Z,16.10
2017-12-07T03:21:46.375Z,15.50
2017-12-07T03:22:46.383Z,16.50
2017-12-07T03:23:46.364Z,16.10
2017-12-07T03:24:46.351Z,15.60
2017-12-07T03:25:46.352Z,16.20
2017-12-07T03:26:46.341Z,15.70
2017-12-07T03:27:46.353Z,14.90
2017-12-07T03:28:46.352Z,15.40
2017-12-07T03:29:46.347Z,14.80
2017-12-07T03:30:46.324Z,15.00
2017-12-07T03:31:46.336Z,14.00
2017-12-07T03:32:46.322Z,14.90
2017-12-07T03:33:46.304Z,13.70
2017-12-07T03:34:46.311Z,14.90
2017-12-07T03:35:46.313Z,14.60
2017-12-07T03:36:46.298Z,14.10
2017-12-07T03:37:46.281Z,14.60
2017-12-07T03:38:46.295Z,13.80
2017-12-07T03:39:46.282Z,13.60
2017-12-07T03:40:46.363Z,14.40
2017-12-07T03:41:46.276Z,13.50
2017-12-07T03:42:46.270Z,13.60
2017-12-07T03:43:46.264Z,14.00
2017-12-07T03:44:46.258Z,13.80
2017-12-07T03:45:46.234Z,13.10
2017-12-07T03:46:46.228Z,13.80
2017-12-07T03:47:46.218Z,13.90
2017-12-07T03:48:46.216Z,13.40
2017-12-07T03:49:46.210Z,13.50
2017-12-07T03:50:46.224Z,14.00
2017-12-07T03:51:46.218Z,12.20
2017-12-07T03:52:46.196Z,12.10
2017-12-07T03:53:46.182Z,13.70
2017-12-07T03:54:46.200Z,13.80
2017-12-07T03:55:46.193Z,13.20
2017-12-07T03:56:46.186Z,12.10
2017-12-07T03:57:46.159Z,12.70
2017-12-07T03:58:46.159Z,12.90
2017-12-07T03:59:46.149Z,11.70
2017-12-07T04:00:46.157Z,12.90
2017-12-07T04:01:46.145Z,12.10
2017-12-07T04:02:46.155Z,11.70
2017-12-07T04:03:46.140Z,12.30
2017-12-07T04:04:46.139Z,11.90
2017-12-07T04:05:46.138Z,12.50
2017-12-07T04:06:46.108Z,11.80
2017-12-07T04:07:46.112Z,11.60
2017-12-07T04:08:46.105Z,11.40
2017-12-07T04:09:46.099Z,11.50
2017-12-07T04:10:46.210Z,11.20
2017-12-07T04:11:46.095Z,11.30
2017-12-07T04:12:46.079Z,11.30
2017-12-07T04:13:46.093Z,11.40
2017-12-07T04:14:46.064Z,11.90
2017-12-07T04:15:46.087Z,10.60
2017-12-07T04:16:46.077Z,11.20
2017-12-07T04:17:46.070Z,11.00
2017-12-07T04:18:46.064Z,11.00
2017-12-07T04:19:46.064Z,11.20
2017-12-07T04:20:46.050Z,11.30
2017-12-07T04:21:46.051Z,11.10
2017-12-07T04:22:46.045Z,11.10
2017-12-07T04:23:46.039Z,11.10
2017-12-07T04:24:46.030Z,10.20
2017-12-07T04:25:46.022Z,10.40
2017-12-07T04:26:46.022Z,10.40
2017-12-07T04:27:46.019Z,10.00
2017-12-07T04:28:46.110Z,10.90
2017-12-07T04:29:46.005Z,10.60
2017-12-07T04:30:45.997Z,10.20
2017-12-07T04:31:45.993Z,11.20
2017-12-07T04:32:45.984Z,10.70
2017-12-07T04:33:45.979Z,11.70
2017-12-07T04:34:45.974Z,11.20
2017-12-07T04:35:45.969Z,11.50
2017-12-07T04:36:45.965Z,11.90
2017-12-07T04:37:45.953Z,12.00
2017-12-07T04:38:45.951Z,11.50
2017-12-07T04:39:45.949Z,10.90
2017-12-07T04:40:46.042Z,10.60
2017-12-07T04:41:45.935Z,11.00
2017-12-07T04:42:45.932Z,11.20
2017-12-07T04:43:45.924Z,10.70
2017-12-07T04:44:45.920Z,11.20
2017-12-07T04:45:45.909Z,10.90
2017-12-07T04:46:45.906Z,11.00
2017-12-07T04:47:45.898Z,10.70
2017-12-07T04:48:45.891Z,10.80
2017-12-07T04:49:45.892Z,11.50
2017-12-07T04:50:45.886Z,11.90
2017-12-07T04:51:45.876Z,11.60
2017-12-07T04:52:45.969Z,11.30
2017-12-07T04:53:45.869Z,11.70
2017-12-07T04:54:45.861Z,12.40
2017-12-07T04:55:45.853Z,11.60
2017-12-07T04:56:45.849Z,10.90
2017-12-07T04:57:45.841Z,11.40
2017-12-07T04:58:45.837Z,10.70
2017-12-07T04:59:45.833Z,10.90
2017-12-07T05:00:45.826Z,11.10
2017-12-07T05:01:45.818Z,10.50
2017-12-07T05:02:45.815Z,11.10
2017-12-07T05:03:45.813Z,11.00
2017-12-07T05:04:45.804Z,10.80
2017-12-07T05:05:45.797Z,9.90
2017-12-07T05:06:45.792Z,10.80
2017-12-07T05:07:45.790Z,10.20
2017-12-07T05:08:45.780Z,10.80
2017-12-07T05:09:45.775Z,11.00
2017-12-07T05:10:45.770Z,11.00
2017-12-07T05:11:45.765Z,11.00
2017-12-07T05:12:45.758Z,10.90
2017-12-07T05:13:45.753Z,10.10
2017-12-07T05:14:45.748Z,11.30
2017-12-07T05:15:45.746Z,11.30
2017-12-07T05:16:45.739Z,11.00
2017-12-07T05:17:45.734Z,10.70
2017-12-07T05:18:45.726Z,10.80
2017-12-07T05:19:45.723Z,10.90
2017-12-07T05:20:45.717Z,10.90
2017-12-07T05:21:45.712Z,11.60
2017-12-07T05:22:45.706Z,11.50
2017-12-07T05:23:45.698Z,10.50
2017-12-07T05:24:45.702Z,10.50
2017-12-07T05:25:45.690Z,11.20
2017-12-07T05:26:45.684Z,10.50
2017-12-07T05:27:45.679Z,9.90
2017-12-07T05:28:45.666Z,10.40
2017-12-07T05:29:45.665Z,10.10
2017-12-07T05:30:45.660Z,10.10
2017-12-07T05:31:45.654Z,10.40
2017-12-07T05:32:45.648Z,10.50
2017-12-07T05:33:45.643Z,10.60
2017-12-07T05:34:45.638Z,10.70
2017-12-07T05:35:45.631Z,10.70
2017-12-07T05:36:45.622Z,10.20
2017-12-07T05:37:45.619Z,10.90
2017-12-07T05:38:45.615Z,9.70
2017-12-07T05:39:45.606Z,10.70
2017-12-07T05:40:45.589Z,10.00
2017-12-07T05:41:45.580Z,11.00
2017-12-07T05:42:45.594Z,10.50
2017-12-07T05:43:45.586Z,11.00
2017-12-07T05:44:45.624Z,11.80
2017-12-07T05:45:45.562Z,10.80
2017-12-07T05:46:45.572Z,11.10
2017-12-07T05:47:45.551Z,11.20
2017-12-07T05:48:45.561Z,10.20
2017-12-07T05:49:45.552Z,11.20
2017-12-07T05:50:45.554Z,11.70
2017-12-07T05:51:45.545Z,11.50
2017-12-07T05:52:45.539Z,11.30
2017-12-07T05:53:45.534Z,11.20
2017-12-07T05:54:45.512Z,11.30
2017-12-07T05:55:45.509Z,11.10
2017-12-07T05:56:45.518Z,11.60
2017-12-07T05:57:45.512Z,10.10
2017-12-07T05:58:45.507Z,11.40
2017-12-07T05:59:45.487Z,11.50
2017-12-07T06:00:45.492Z,10.80
2017-12-07T06:01:45.472Z,11.60
2017-12-07T06:02:45.470Z,11.70
2017-12-07T06:03:45.481Z,11.40
2017-12-07T06:04:45.474Z,12.00
2017-12-07T06:05:45.470Z,11.40
2017-12-07T06:06:45.446Z,12.00
2017-12-07T06:07:45.455Z,12.50
2017-12-07T06:08:45.454Z,11.70
2017-12-07T06:09:45.433Z,12.70
2017-12-07T06:10:45.440Z,11.70
2017-12-07T06:11:45.419Z,11.70
2017-12-07T06:12:45.417Z,11.70
2017-12-07T06:13:45.427Z,12.30
2017-12-07T06:14:45.425Z,12.20
2017-12-07T06:15:45.416Z,12.40
2017-12-07T06:16:45.408Z,11.90
2017-12-07T06:17:45.406Z,12.70
2017-12-07T06:18:45.400Z,11.80
2017-12-07T06:19:45.392Z,12.10
2017-12-07T06:20:45.385Z,12.30
2017-12-07T06:21:45.384Z,11.60
2017-12-07T06:22:45.479Z,11.90
2017-12-07T06:23:45.374Z,12.40
2017-12-07T06:24:45.364Z,12.70
2017-12-07T06:25:45.366Z,13.60
2017-12-07T06:26:45.361Z,12.00
2017-12-07T06:27:45.353Z,12.40
2017-12-07T06:28:45.343Z,13.00
2017-12-07T06:29:45.349Z,13.00
2017-12-07T06:30:45.339Z,13.70
2017-12-07T06:31:45.330Z,13.60
2017-12-07T06:32:45.328Z,13.60
2017-12-07T06:33:45.323Z,13.40
2017-12-07T06:34:45.316Z,14.80
2017-12-07T06:35:45.313Z,14.20
2017-12-07T06:36:45.307Z,13.30
2017-12-07T06:37:45.293Z,12.80
2017-12-07T06:38:45.297Z,14.10
2017-12-07T06:39:45.292Z,13.50
2017-12-07T06:40:45.286Z,14.40
2017-12-07T06:41:45.278Z,13.60
2017-12-07T06:42:45.272Z,13.90
2017-12-07T06:43:45.268Z,14.10
2017-12-07T06:44:45.267Z,13.70
2017-12-07T06:45:45.307Z,13.50
2017-12-07T06:46:45.245Z,13.40
2017-12-07T06:47:45.250Z,12.90
2017-12-07T06:48:45.244Z,13.30
2017-12-07T06:49:45.239Z,13.10
2017-12-07T06:50:45.234Z,13.10
2017-12-07T06:51:45.226Z,13.10
2017-12-07T06:52:45.292Z,13.20
2017-12-07T06:53:45.213Z,13.80
2017-12-07T06:54:45.212Z,13.10
2017-12-07T06:55:45.208Z,12.30
2017-12-07T06:56:45.193Z,13.50
2017-12-07T06:57:45.195Z,13.30
2017-12-07T06:58:45.291Z,13.30
2017-12-07T06:59:45.187Z,13.60
2017-12-07T07:00:45.176Z,13.40
2017-12-07T07:01:45.174Z,12.30
2017-12-07T07:02:45.171Z,11.90
2017-12-07T07:03:45.173Z,13.60
2017-12-07T07:04:45.159Z,13.90
2017-12-07T07:05:45.154Z,13.60
2017-12-07T07:06:45.149Z,14.10
2017-12-07T07:07:45.154Z,13.50
2017-12-07T07:08:45.138Z,13.80
2017-12-07T07:09:45.133Z,13.20
2017-12-07T07:10:45.231Z,13.80
2017-12-07T07:11:45.127Z,13.20
2017-12-07T07:12:45.118Z,14.20
2017-12-07T07:13:45.116Z,14.50
2017-12-07T07:14:45.105Z,14.50
2017-12-07T07:15:45.102Z,15.00
2017-12-07T07:16:45.098Z,14.90
2017-12-07T07:17:45.093Z,14.50
2017-12-07T07:18:45.090Z,14.10
2017-12-07T07:19:45.074Z,14.00
2017-12-07T07:20:45.079Z,15.30
2017-12-07T07:21:45.072Z,15.70
2017-12-07T07:22:45.073Z,14.90
2017-12-07T07:23:45.053Z,16.50
2017-12-07T07:24:45.047Z,15.40
2017-12-07T07:25:45.051Z,15.60
2017-12-07T07:26:45.046Z,16.50
2017-12-07T07:27:45.032Z,16.40
2017-12-07T07:28:45.026Z,15.70
2017-12-07T07:29:45.021Z,15.10
2017-12-07T07:30:45.016Z,16.10
2017-12-07T07:31:45.014Z,14.50
2017-12-07T07:32:45.005Z,14.80
2017-12-07T07:33:45.008Z,14.70
2017-12-07T07:34:45.047Z,15.40
2017-12-07T07:35:44.996Z,15.20
2017-12-07T07:36:44.983Z,14.30
2017-12-07T07:37:44.990Z,14.70
2017-12-07T07:38:44.983Z,15.80
2017-12-07T07:39:44.977Z,15.60
2017-12-07T07:40:45.070Z,14.30
2017-12-07T07:41:44.957Z,14.70
2017-12-07T07:42:44.955Z,15.30
2017-12-07T07:43:44.953Z,15.10
2017-12-07T07:44:44.941Z,14.90
2017-12-07T07:45:44.936Z,15.00
2017-12-07T07:46:44.932Z,14.60
2017-12-07T07:47:44.931Z,15.60
2017-12-07T07:48:44.925Z,15.80
2017-12-07T07:49:44.914Z,15.70
2017-12-07T07:50:44.910Z,14.90
2017-12-07T07:51:44.905Z,14.90
2017-12-07T07:52:44.898Z,14.50
2017-12-07T07:53:44.900Z,14.60
2017-12-07T07:54:44.888Z,15.40
2017-12-07T07:55:44.890Z,15.50
2017-12-07T07:56:44.877Z,16.00
2017-12-07T07:57:44.877Z,15.00
2017-12-07T07:58:44.867Z,16.20
2017-12-07T07:59:44.862Z,15.80
2017-12-07T08:00:44.858Z,14.70
2017-12-07T08:01:44.859Z,15.00
2017-12-07T08:02:44.848Z,15.10
2017-12-07T08:03:44.843Z,15.40
2017-12-07T08:04:44.843Z,15.10
2017-12-07T08:05:44.832Z,15.60
2017-12-07T08:06:44.827Z,16.40
2017-12-07T08:07:44.825Z,15.30
2017-12-07T08:08:44.822Z,16.00
2017-12-07T08:09:44.813Z,15.30
2017-12-07T08:10:44.804Z,15.40
2017-12-07T08:11:44.799Z,15.80
2017-12-07T08:12:44.801Z,15.20
2017-12-07T08:13:44.790Z,15.50
2017-12-07T08:14:44.788Z,15.30
2017-12-07T08:15:44.787Z,16.70
2017-12-07T08:16:44.780Z,15.60
2017-12-07T08:17:44.815Z,16.10
2017-12-07T08:18:44.767Z,16.60
2017-12-07T08:19:44.762Z,16.10
2017-12-07T08:20:44.756Z,16.70
2017-12-07T08:21:44.751Z,16.20
2017-12-07T08:22:44.745Z,15.00
2017-12-07T08:23:44.744Z,16.90
2017-12-07T08:24:44.729Z,15.90
2017-12-07T08:25:44.732Z,17.30
2017-12-07T08:26:44.728Z,16.60
2017-12-07T08:27:44.720Z,16.10
2017-12-07T08:28:44.713Z,15.60
2017-12-07T08:29:44.702Z,15.50
2017-12-07T08:30:44.700Z,16.00
2017-12-07T08:31:44.698Z,17.00
2017-12-07T08:32:44.687Z,16.50
2017-12-07T08:33:44.682Z,15.60
2017-12-07T08:34:44.683Z,15.70
2017-12-07T08:35:44.681Z,14.80
2017-12-07T08:36:44.665Z,15.90
2017-12-07T08:37:44.667Z,15.40
2017-12-07T08:38:44.662Z,15.80
2017-12-07T08:39:44.651Z,16.50
2017-12-07T08:40:44.650Z,16.00
2017-12-07T08:41:44.640Z,16.10
2017-12-07T08:42:44.634Z,16.80
2017-12-07T08:43:44.631Z,16.40
2017-12-07T08:44:44.624Z,15.70
2017-12-07T08:45:44.624Z,16.30
2017-12-07T08:46:44.619Z,16.50
2017-12-07T08:47:44.615Z,16.60
2017-12-07T08:48:44.603Z,16.20
2017-12-07T08:49:44.598Z,17.00
2017-12-07T08:50:44.598Z,15.90
2017-12-07T08:51:44.587Z,16.00
2017-12-07T08:52:44.588Z,16.50
2017-12-07T08:53:44.606Z,15.60
2017-12-07T08:54:44.571Z,15.80
2017-12-07T08:55:44.572Z,17.20
2017-12-07T08:56:44.568Z,20.30
2017-12-07T08:57:44.555Z,16.80
2017-12-07T08:58:44.559Z,16.40
2017-12-07T08:59:44.552Z,16.90
2017-12-07T09:00:44.548Z,17.30
2017-12-07T09:01:44.550Z,17.30
2017-12-07T09:02:44.540Z,17.70
2017-12-07T09:03:44.533Z,16.30
2017-12-07T09:04:44.535Z,16.20
2017-12-07T09:05:44.513Z,16.00
2017-12-07T09:06:44.510Z,16.30
2017-12-07T09:07:44.515Z,16.00
2017-12-07T09:08:44.505Z,18.00
2017-12-07T09:09:44.501Z,17.40
2017-12-07T09:10:44.487Z,16.40
2017-12-07T09:11:44.485Z,16.80
2017-12-07T09:12:44.486Z,16.40
2017-12-07T09:13:44.478Z,15.60
2017-12-07T09:14:44.476Z,16.30
2017-12-07T09:15:44.464Z,15.20
2017-12-07T09:16:44.461Z,15.30
2017-12-07T09:17:44.451Z,15.80
2017-12-07T09:18:44.449Z,16.10
2017-12-07T09:19:44.453Z,16.00
2017-12-07T09:20:44.438Z,15.90
2017-12-07T09:21:44.431Z,15.80
2017-12-07T09:22:44.538Z,16.20
2017-12-07T09:23:44.424Z,16.90
2017-12-07T09:24:44.418Z,16.20
2017-12-07T09:25:44.411Z,16.50
2017-12-07T09:26:44.414Z,16.10
2017-12-07T09:27:44.407Z,15.90
2017-12-07T09:28:44.405Z,16.20
2017-12-07T09:29:44.400Z,15.80
2017-12-07T09:30:44.389Z,16.10
2017-12-07T09:31:44.382Z,16.30
2017-12-07T09:32:44.385Z,16.20
2017-12-07T09:33:44.383Z,17.00
2017-12-07T09:34:44.370Z,15.80
2017-12-07T09:35:44.365Z,15.80
2017-12-07T09:36:44.384Z,17.50
2017-12-07T09:37:44.354Z,16.30
2017-12-07T09:38:44.349Z,16.70
2017-12-07T09:39:44.355Z,17.20
2017-12-07T09:40:44.339Z,17.80
2017-12-07T09:41:44.344Z,17.80
2017-12-07T09:42:44.330Z,18.10
2017-12-07T09:43:44.335Z,18.70
2017-12-07T09:44:44.321Z,19.20
2017-12-07T09:45:44.322Z,18.90
2017-12-07T09:46:44.313Z,19.20
2017-12-07T09:47:44.305Z,18.70
2017-12-07T09:48:44.307Z,18.90
2017-12-07T09:49:44.302Z,18.50
2017-12-07T09:50:44.300Z,19.80
2017-12-07T09:51:44.289Z,19.70
2017-12-07T09:52:44.288Z,18.30
2017-12-07T09:53:44.285Z,18.10
2017-12-07T09:54:44.276Z,19.80
2017-12-07T09:55:44.276Z,19.60
2017-12-07T09:56:44.270Z,18.10
2017-12-07T09:57:44.263Z,18.80
2017-12-07T09:58:44.361Z,19.10
2017-12-07T09:59:44.249Z,18.50
2017-12-07T10:00:44.247Z,18.60
2017-12-07T10:01:44.244Z,19.70
2017-12-07T10:02:44.234Z,19.40
2017-12-07T10:03:44.231Z,19.50
2017-12-07T10:04:44.228Z,18.40
2017-12-07T10:05:44.218Z,18.60
2017-12-07T10:06:44.211Z,19.30
2017-12-07T10:07:44.216Z,18.80
2017-12-07T10:08:44.201Z,20.00
2017-12-07T10:09:44.202Z,19.30
2017-12-07T10:10:44.200Z,20.20
2017-12-07T10:11:44.192Z,19.90
2017-12-07T10:12:44.180Z,20.40
2017-12-07T10:13:44.180Z,19.70
2017-12-07T10:14:44.158Z,20.60
2017-12-07T10:15:44.153Z,20.50
2017-12-07T10:16:44.141Z,19.10
2017-12-07T10:17:44.163Z,17.80
2017-12-07T10:18:44.155Z,19.50
2017-12-07T10:19:44.151Z,19.30
2017-12-07T10:20:44.126Z,19.70
2017-12-07T10:21:44.134Z,19.80
2017-12-07T10:22:44.135Z,18.40
2017-12-07T10:23:44.106Z,18.50
2017-12-07T10:24:44.128Z,19.60
2017-12-07T10:25:44.106Z,18.80
2017-12-07T10:26:44.097Z,18.50
2017-12-07T10:27:44.092Z,17.70
2017-12-07T10:28:44.076Z,18.10
2017-12-07T10:29:44.076Z,16.70
2017-12-07T10:30:44.092Z,17.30
2017-12-07T10:31:44.085Z,17.50
2017-12-07T10:32:44.080Z,18.40
2017-12-07T10:33:44.058Z,17.40
2017-12-07T10:34:44.052Z,18.30
2017-12-07T10:35:44.066Z,19.40
2017-12-07T10:36:44.063Z,20.10
2017-12-07T10:37:44.039Z,19.60
2017-12-07T10:38:44.034Z,18.20
2017-12-07T10:39:44.030Z,18.50
2017-12-07T10:40:44.024Z,20.60
2017-12-07T10:41:44.039Z,20.00
2017-12-07T10:42:44.018Z,21.40
2017-12-07T10:43:44.030Z,20.60
2017-12-07T10:44:44.007Z,21.30
2017-12-07T10:45:44.020Z,20.50
2017-12-07T10:46:43.999Z,19.20
2017-12-07T10:47:44.018Z,20.40
2017-12-07T10:48:44.007Z,19.40
2017-12-07T10:49:43.985Z,19.00
2017-12-07T10:50:43.981Z,16.60
2017-12-07T10:51:43.988Z,19.20
2017-12-07T10:52:43.990Z,20.50
2017-12-07T10:53:44.173Z,20.00
2017-12-07T10:54:43.974Z,20.50
2017-12-07T10:55:43.977Z,20.00
2017-12-07T10:56:43.954Z,18.80
2017-12-07T10:57:43.974Z,19.70
2017-12-07T10:58:43.963Z,19.90
2017-12-07T10:59:43.942Z,21.20
2017-12-07T11:00:43.965Z,20.20
2017-12-07T11:01:43.950Z,20.30
2017-12-07T11:02:43.934Z,19.00
2017-12-07T11:03:43.934Z,20.40
2017-12-07T11:04:43.947Z,20.50
2017-12-07T11:05:43.917Z,20.40
2017-12-07T11:06:43.917Z,20.30
2017-12-07T11:07:43.909Z,20.50
2017-12-07T11:08:43.930Z,21.80
2017-12-07T11:09:43.903Z,20.80
2017-12-07T11:10:43.904Z,21.60
2017-12-07T11:11:43.901Z,21.20
2017-12-07T11:12:43.895Z,21.80
2017-12-07T11:13:43.891Z,22.10
2017-12-07T11:14:43.886Z,20.40
2017-12-07T11:15:43.883Z,21.80
2017-12-07T11:16:43.880Z,22.10
2017-12-07T11:17:43.869Z,21.20
2017-12-07T11:18:43.869Z,22.10
2017-12-07T11:19:43.857Z,22.00
2017-12-07T11:20:43.865Z,23.00
2017-12-07T11:21:43.857Z,22.10
2017-12-07T11:22:43.853Z,23.20
2017-12-07T11:23:43.849Z,21.90
2017-12-07T11:24:43.844Z,22.50
2017-12-07T11:25:43.832Z,22.20
2017-12-07T11:26:43.835Z,21.60
2017-12-07T11:27:43.833Z,21.30
2017-12-07T11:28:43.833Z,20.80
2017-12-07T11:29:43.824Z,20.90
2017-12-07T11:30:43.824Z,21.50
2017-12-07T11:31:43.818Z,20.60
2017-12-07T11:32:43.809Z,21.70
2017-12-07T11:33:43.806Z,22.30
2017-12-07T11:34:43.807Z,21.90
2017-12-07T11:35:43.903Z,21.00
2017-12-07T11:36:43.803Z,21.20
2017-12-07T11:37:43.791Z,21.20
2017-12-07T11:38:43.791Z,20.70
2017-12-07T11:39:43.785Z,20.90
2017-12-07T11:40:43.784Z,20.90
2017-12-07T11:41:43.788Z,20.90
2017-12-07T11:42:43.777Z,20.30
2017-12-07T11:43:43.774Z,19.90
2017-12-07T11:44:43.766Z,19.80
2017-12-07T11:45:43.774Z,19.60
2017-12-07T11:46:43.759Z,20.00
2017-12-07T11:47:43.761Z,21.20
2017-12-07T11:48:43.757Z,20.20
2017-12-07T11:49:43.754Z,19.70
2017-12-07T11:50:43.766Z,18.70
2017-12-07T11:51:43.746Z,18.70
2017-12-07T11:52:43.757Z,17.70
2017-12-07T11:53:43.758Z,17.60
2017-12-07T11:54:43.753Z,18.20
2017-12-07T11:55:43.731Z,18.10
2017-12-07T11:56:43.731Z,17.90
2017-12-07T11:57:43.743Z,18.70
2017-12-07T11:58:43.736Z,18.70
2017-12-07T11:59:43.737Z,18.60
2017-12-07T12:00:43.718Z,17.90
2017-12-07T12:01:43.712Z,16.40
2017-12-07T12:02:43.728Z,17.50
2017-12-07T12:03:43.726Z,17.90
2017-12-07T12:04:43.708Z,17.90
2017-12-07T12:05:43.801Z,16.80
2017-12-07T12:06:43.713Z,16.20
2017-12-07T12:07:43.700Z,17.00
2017-12-07T12:08:43.711Z,17.90
2017-12-07T12:09:43.691Z,18.00
2017-12-07T12:10:43.688Z,17.50
2017-12-07T12:11:43.699Z,19.50
2017-12-07T12:12:43.696Z,18.30
2017-12-07T12:13:43.698Z,19.60
2017-12-07T12:14:43.678Z,19.50
2017-12-07T12:15:43.677Z,18.80
2017-12-07T12:16:43.674Z,19.90
2017-12-07T12:17:43.672Z,19.50
2017-12-07T12:18:43.668Z,20.90
2017-12-07T12:19:43.667Z,21.50
2017-12-07T12:20:43.663Z,19.30
2017-12-07T12:21:43.659Z,19.50
2017-12-07T12:22:43.654Z,20.20
2017-12-07T12:23:43.652Z,19.70
2017-12-07T12:24:43.651Z,19.30
2017-12-07T12:25:43.661Z,18.80
2017-12-07T12:26:43.661Z,20.20
2017-12-07T12:27:43.656Z,19.70
2017-12-07T12:28:43.642Z,20.50
2017-12-07T12:29:43.643Z,20.60
2017-12-07T12:30:43.636Z,19.70
2017-12-07T12:31:43.635Z,20.10
2017-12-07T12:32:43.648Z,20.50
2017-12-07T12:33:43.642Z,20.70
2017-12-07T12:34:43.638Z,19.80
2017-12-07T12:35:43.620Z,20.50
2017-12-07T12:36:43.620Z,19.50
2017-12-07T12:37:43.619Z,19.80
2017-12-07T12:38:43.627Z,19.30
2017-12-07T12:39:43.613Z,19.90
2017-12-07T12:40:43.610Z,18.80
2017-12-07T12:41:43.609Z,19.20
2017-12-07T12:42:43.608Z,18.10
2017-12-07T12:43:43.599Z,19.00
2017-12-07T12:44:43.597Z,18.30
2017-12-07T12:45:43.594Z,18.50
2017-12-07T12:46:43.607Z,18.00
2017-12-07T12:47:43.610Z,17.50
2017-12-07T12:48:43.601Z,16.00
2017-12-07T12:49:43.838Z,16.40
2017-12-07T12:50:43.602Z,15.90
2017-12-07T12:51:43.580Z,15.60
2017-12-07T12:52:43.593Z,16.20